Time;durP1;ratioP1;P1;durP2;ratioP2;P2;SDS_P1;SDS_P2;PMS_P1;PMS_P2;Temp;Humidity;BMP_temperature;BMP_pressure;BME280_temperature;BME280_humidity;BME280_pressure;Samples;Min_cycle;Max_cycle;Signal;HPM_P1;HPM_P2
2022/04/29 00:00:38;;;;;;;14.20;6.30;;;;;;;6.90;53.70;100039.91;4994266;28;20065;-72
2022/04/29 00:03:09;;;;;;;15.38;6.50;;;;;;;6.92;53.63;100040.50;5010424;28;20547;-71
2022/04/29 00:05:35;;;;;;;16.05;6.55;;;;;;;6.85;53.70;100030.84;5012191;28;20465;-73
2022/04/29 00:08:01;;;;;;;15.07;6.80;;;;;;;6.87;53.72;100034.97;5011120;28;20049;-73
2022/04/29 00:10:28;;;;;;;15.07;6.70;;;;;;;6.85;54.06;100037.09;5010423;28;20313;-72
2022/04/29 00:12:55;;;;;;;14.32;6.90;;;;;;;6.81;53.92;100030.50;5008897;28;20395;-72
2022/04/29 00:15:21;;;;;;;13.73;6.47;;;;;;;6.84;54.11;100037.34;5026468;28;20046;-72
2022/04/29 00:17:48;;;;;;;14.10;6.82;;;;;;;6.95;54.05;100033.75;5018113;28;20040;-71
2022/04/29 00:20:14;;;;;;;11.77;6.55;;;;;;;6.86;54.66;100027.06;4993418;28;20054;-71
2022/04/29 00:22:41;;;;;;;16.20;7.07;;;;;;;6.53;55.52;100032.97;4991468;28;20266;-71
2022/04/29 00:25:08;;;;;;;16.77;6.60;;;;;;;6.42;55.54;100016.75;5015098;28;20406;-71
2022/04/29 00:27:35;;;;;;;17.23;6.88;;;;;;;6.50;55.58;100028.03;5015584;28;20100;-71
2022/04/29 00:30:02;;;;;;;14.82;7.47;;;;;;;6.42;56.04;100033.84;4995145;28;20045;-71
2022/04/29 00:32:30;;;;;;;13.13;7.25;;;;;;;6.46;55.52;100029.56;4994733;28;20050;-72
2022/04/29 00:34:56;;;;;;;15.15;6.70;;;;;;;6.57;55.30;100036.06;5004778;28;20076;-71
2022/04/29 00:37:22;;;;;;;18.15;7.30;;;;;;;6.63;54.66;100037.78;5012280;28;20429;-71
2022/04/29 00:39:49;;;;;;;18.40;7.57;;;;;;;6.73;54.33;100029.00;5009883;28;20137;-69
2022/04/29 00:42:17;;;;;;;17.07;7.77;;;;;;;6.78;53.91;100033.72;4994060;28;20510;-72
2022/04/29 00:44:44;;;;;;;;;;;;;;;6.78;53.88;100029.06;4996648;28;20308;-71
2022/04/29 00:47:13;;;;;;;13.20;6.28;;;;;;;6.75;53.89;100031.47;4994153;28;19925;-71
2022/04/29 00:49:39;;;;;;;13.25;6.50;;;;;;;6.55;54.54;100038.16;4976946;28;20136;-73
2022/04/29 00:52:07;;;;;;;13.48;6.03;;;;;;;6.41;54.77;100015.09;4977281;28;20518;-75
2022/04/29 00:54:36;;;;;;;13.63;6.70;;;;;;;6.48;54.70;100032.06;4989665;28;20041;-75
2022/04/29 00:57:06;;;;;;;15.85;7.03;;;;;;;6.57;54.28;100032.50;4961229;28;20069;-74
2022/04/29 00:59:38;;;;;;;16.55;7.47;;;;;;;6.55;54.20;100027.28;5010867;28;20057;-73
2022/04/29 01:02:08;;;;;;;14.27;7.80;;;;;;;6.56;54.33;100022.69;4992127;28;20077;-73
2022/04/29 01:04:41;;;;;;;16.10;8.65;;;;;;;6.59;54.29;100024.91;5008204;28;20049;-72
2022/04/29 01:07:07;;;;;;;19.10;9.45;;;;;;;6.56;54.50;100023.53;4994044;28;20053;-73
2022/04/29 01:09:34;;;;;;;16.15;8.75;;;;;;;6.62;54.34;100019.00;4992587;28;20399;-71
2022/04/29 01:12:02;;;;;;;18.35;8.45;;;;;;;6.63;54.00;100023.38;4963313;28;20041;-73
2022/04/29 01:14:28;;;;;;;16.90;8.70;;;;;;;6.64;54.26;100020.41;4975205;28;20045;-73
2022/04/29 01:16:58;;;;;;;17.25;9.05;;;;;;;6.64;54.14;100011.44;5010618;28;20046;-73
2022/04/29 01:19:24;;;;;;;15.43;7.97;;;;;;;6.64;54.23;100030.47;5023910;28;20046;-73
2022/04/29 01:21:52;;;;;;;17.70;8.82;;;;;;;6.61;54.36;100017.34;4996864;28;20053;-73
2022/04/29 01:24:19;;;;;;;17.25;8.32;;;;;;;6.59;54.46;100020.31;4974392;28;20100;-72
2022/04/29 01:26:45;;;;;;;19.65;8.88;;;;;;;6.51;54.65;100007.13;4975749;28;20069;-73
2022/04/29 01:29:13;;;;;;;17.75;9.02;;;;;;;6.55;54.64;100021.03;4976725;28;20060;-74
2022/04/29 01:31:40;;;;;;;20.38;9.27;;;;;;;6.51;54.58;100016.09;4992052;28;20073;-73
2022/04/29 01:34:06;;;;;;;17.63;9.20;;;;;;;6.52;54.81;100023.19;4991417;28;20088;-72
2022/04/29 01:36:32;;;;;;;18.85;9.73;;;;;;;6.51;54.64;100018.81;4977803;28;20115;-74
2022/04/29 01:38:58;;;;;;;21.70;9.35;;;;;;;6.48;54.76;100022.03;4985941;28;20510;-73
2022/04/29 01:41:25;;;;;;;18.25;9.52;;;;;;;6.51;54.63;100017.97;5002111;28;20144;-72
2022/04/29 01:43:52;;;;;;;17.17;9.00;;;;;;;6.47;54.68;100011.41;4979623;28;20243;-73
2022/04/29 01:46:18;;;;;;;16.83;9.10;;;;;;;6.49;54.54;100017.41;4995026;28;20072;-72
2022/04/29 01:49:04;;;;;;;16.38;9.70;;;;;;;6.45;54.82;100011.63;5013744;28;20505;-74
2022/04/29 01:51:33;;;;;;;18.48;9.52;;;;;;;6.44;54.96;100011.88;4993715;28;20065;-73
2022/04/29 01:53:59;;;;;;;19.73;9.63;;;;;;;6.46;54.74;100020.63;4995461;28;20037;-73
2022/04/29 01:56:32;;;;;;;21.63;10.30;;;;;;;6.49;54.73;100020.13;4996850;28;20472;-73
2022/04/29 01:59:01;;;;;;;21.35;9.68;;;;;;;6.50;54.55;100021.78;4995531;28;20096;-72
2022/04/29 02:01:31;;;;;;;17.42;9.65;;;;;;;6.44;54.60;100017.31;4993067;28;20434;-73
2022/04/29 02:04:01;;;;;;;26.20;10.03;;;;;;;6.39;54.74;100015.31;4979040;28;20053;-72
2022/04/29 02:06:28;;;;;;;19.15;9.40;;;;;;;6.42;54.50;100022.97;4995686;28;20506;-73
2022/04/29 02:08:55;;;;;;;19.88;9.23;;;;;;;6.45;54.52;100021.69;4993927;28;20085;-72
2022/04/29 02:11:21;;;;;;;18.60;8.82;;;;;;;6.40;54.49;100019.69;4992815;28;20054;-72
2022/04/29 02:13:58;;;;;;;19.58;8.90;;;;;;;6.37;54.90;100036.47;4994079;28;20045;-72
2022/04/29 02:16:50;;;;;;;18.10;9.77;;;;;;;6.30;55.12;100028.47;4995807;28;20085;-73
2022/04/29 02:19:17;;;;;;;16.03;8.70;;;;;;;6.24;55.16;100015.81;4975081;28;20050;-72
2022/04/29 02:21:43;;;;;;;21.30;10.23;;;;;;;6.28;55.20;100032.47;4979549;28;20100;-74
2022/04/29 02:24:09;;;;;;;18.85;9.30;;;;;;;6.23;55.49;100019.59;4993429;28;20092;-73
2022/04/29 02:26:36;;;;;;;18.15;8.90;;;;;;;6.28;55.15;100027.88;4994866;28;20076;-73
2022/04/29 02:29:03;;;;;;;19.88;8.63;;;;;;;6.32;55.05;100025.47;5000540;28;20081;-72
2022/04/29 02:31:29;;;;;;;17.35;8.77;;;;;;;6.34;55.06;100023.38;4999631;28;20131;-72
2022/04/29 02:33:55;;;;;;;19.20;9.27;;;;;;;6.31;54.65;100013.81;5015351;28;20433;-72
2022/04/29 02:36:23;;;;;;;18.33;9.60;;;;;;;6.34;54.82;100026.91;4978974;28;20515;-71
2022/04/29 02:38:49;;;;;;;;;;;;;;;6.37;54.87;100033.75;4995771;28;20053;-72
2022/04/29 02:41:17;;;;;;;23.70;8.88;;;;;;;6.33;54.80;100033.41;4994548;28;20385;-71
2022/04/29 02:43:44;;;;;;;19.98;8.63;;;;;;;6.34;54.75;100037.75;4994632;28;20418;-72
2022/04/29 02:46:11;;;;;;;21.47;8.83;;;;;;;6.36;54.68;100032.09;4994013;28;20167;-72
2022/04/29 02:48:37;;;;;;;23.92;9.13;;;;;;;6.37;54.84;100037.28;5013418;28;20057;-72
2022/04/29 02:51:04;;;;;;;21.33;9.83;;;;;;;6.33;55.03;100041.53;5008257;28;20120;-72
2022/04/29 02:53:31;;;;;;;19.25;9.25;;;;;;;6.28;55.21;100030.59;4994711;28;20363;-72
2022/04/29 02:55:57;;;;;;;17.15;8.75;;;;;;;6.30;55.34;100036.59;4975713;28;20088;-73
2022/04/29 02:58:41;;;;;;;19.30;9.20;;;;;;;6.31;55.48;100035.53;5013026;28;20096;-73
2022/04/29 03:01:08;;;;;;;21.60;9.32;;;;;;;6.33;55.29;100038.84;4994352;28;20050;-72
2022/04/29 03:03:35;;;;;;;19.50;9.52;;;;;;;6.23;55.93;100036.75;4995135;28;20449;-72
2022/04/29 03:06:01;;;;;;;20.17;9.00;;;;;;;6.23;55.88;100038.63;5010390;28;20046;-73
2022/04/29 03:08:27;;;;;;;16.60;9.38;;;;;;;6.19;56.10;100043.72;4994472;28;20085;-73
2022/04/29 03:10:53;;;;;;;17.80;8.95;;;;;;;6.25;56.19;100044.66;4978802;28;20086;-74
2022/04/29 03:13:20;;;;;;;18.33;9.30;;;;;;;6.31;56.17;100046.41;4977571;28;20049;-74
2022/04/29 03:15:52;;;;;;;16.60;9.10;;;;;;;6.20;56.82;100053.53;5008250;28;20101;-73
2022/04/29 03:18:19;;;;;;;18.02;9.52;;;;;;;6.22;56.81;100051.38;4978635;28;20069;-73
2022/04/29 03:20:48;;;;;;;22.13;9.10;;;;;;;6.13;56.97;100052.81;4979269;28;20046;-72
2022/04/29 03:23:16;;;;;;;19.55;10.35;;;;;;;6.25;56.88;100052.81;4996169;28;20050;-72
2022/04/29 03:25:49;;;;;;;20.25;10.25;;;;;;;6.30;56.69;100058.34;4993440;28;20061;-71
2022/04/29 03:28:16;;;;;;;22.33;9.93;;;;;;;6.25;57.07;100058.22;4993869;28;20180;-74
2022/04/29 03:30:42;;;;;;;23.08;10.82;;;;;;;6.39;56.58;100061.50;5000992;28;20064;-72
2022/04/29 03:33:11;;;;;;;22.05;9.50;;;;;;;6.37;56.69;100058.19;5008363;28;20046;-75
2022/04/29 03:35:41;;;;;;;20.10;10.10;;;;;;;6.23;57.24;100065.78;4994717;28;20050;-75
2022/04/29 03:38:09;;;;;;;17.55;10.02;;;;;;;6.42;56.64;100068.34;5000303;28;20111;-74
2022/04/29 03:40:35;;;;;;;17.45;9.65;;;;;;;6.47;56.44;100065.72;4989468;28;20129;-73
2022/04/29 03:43:02;;;;;;;19.50;10.32;;;;;;;6.36;56.72;100057.34;4994007;28;20069;-74
2022/04/29 03:45:28;;;;;;;19.33;10.88;;;;;;;6.39;56.76;100073.16;4994080;28;20575;-73
2022/04/29 03:47:57;;;;;;;20.42;10.35;;;;;;;6.35;56.71;100072.00;4976185;28;20107;-73
2022/04/29 03:50:36;;;;;;;22.90;10.48;;;;;;;6.43;56.49;100073.53;4978528;28;20049;-72
2022/04/29 03:53:16;;;;;;;20.60;10.10;;;;;;;6.52;56.42;100080.25;4960168;28;20056;-72
2022/04/29 03:55:51;;;;;;;21.45;11.25;;;;;;;6.51;56.35;100075.88;4988083;28;20049;-74
2022/04/29 03:58:18;;;;;;;27.70;10.93;;;;;;;6.50;56.44;100074.22;4991669;28;21066;-74
2022/04/29 04:00:51;;;;;;;21.05;10.45;;;;;;;6.54;56.46;100074.53;4980066;28;20477;-74
2022/04/29 04:03:52;;;;;;;19.88;9.95;;;;;;;6.58;56.10;100073.03;4931875;29;20130;-72
2022/04/29 04:09:07;;;;;;;;;;;;;;;6.73;55.54;100085.25;4996116;28;20540;-72
2022/04/29 04:11:34;;;;;;;;;;;;;;;6.77;55.29;100079.06;5003724;28;19931;-73
2022/04/29 04:14:00;;;;;;;18.80;10.48;;;;;;;6.74;55.29;100086.91;5013934;28;20058;-74
2022/04/29 04:16:33;;;;;;;22.50;10.68;;;;;;;6.67;55.57;100073.47;5030201;28;20518;-73
2022/04/29 04:18:59;;;;;;;28.73;11.18;;;;;;;6.81;55.47;100077.53;5012677;28;20585;-73
2022/04/29 04:21:26;;;;;;;18.83;9.93;;;;;;;6.86;55.16;100079.50;4975612;28;20391;-73
2022/04/29 04:23:53;;;;;;;24.58;10.68;;;;;;;6.86;55.45;100076.78;4977537;28;20817;-73
2022/04/29 04:26:20;;;;;;;22.10;10.52;;;;;;;6.92;55.48;100088.59;4993658;28;20084;-74
2022/04/29 04:28:46;;;;;;;26.77;11.10;;;;;;;7.03;55.27;100084.19;4993894;28;20053;-71
2022/04/29 04:31:13;;;;;;;30.40;11.10;;;;;;;7.11;55.09;100085.69;5015560;28;20045;-72
2022/04/29 04:33:46;;;;;;;24.02;11.82;;;;;;;6.94;55.14;100075.56;4984435;28;20041;-72
2022/04/29 04:36:12;;;;;;;28.35;11.50;;;;;;;7.01;55.23;100083.56;5008556;28;20493;-74
2022/04/29 04:38:39;;;;;;;21.98;10.40;;;;;;;7.00;55.42;100084.66;4976957;28;20050;-73
2022/04/29 04:41:11;;;;;;;22.77;10.20;;;;;;;6.85;55.73;100090.63;4994120;28;20077;-74
2022/04/29 04:43:41;;;;;;;27.23;10.80;;;;;;;6.88;55.96;100095.59;4977356;28;20407;-73
2022/04/29 04:46:11;;;;;;;22.17;11.98;;;;;;;7.01;55.67;100099.88;5006485;28;20096;-74
2022/04/29 04:48:41;;;;;;;21.67;11.48;;;;;;;7.15;55.22;100101.25;4991801;28;20056;-73
2022/04/29 04:51:26;;;;;;;29.17;10.93;;;;;;;7.11;55.42;100091.94;5009845;28;20054;-73
2022/04/29 04:53:56;;;;;;;33.45;10.80;;;;;;;7.15;55.52;100097.72;5009448;28;20469;-72
2022/04/29 04:56:23;;;;;;;21.75;10.43;;;;;;;7.25;54.90;100100.59;4993399;28;20506;-72
2022/04/29 04:58:51;;;;;;;;;;;;;;;7.19;55.20;100104.31;4993813;28;20058;-74
2022/04/29 05:01:19;;;;;;;24.77;9.88;;;;;;;7.26;54.31;100099.56;4974641;28;19932;-72
2022/04/29 05:04:12;;;;;;;21.92;9.27;;;;;;;7.24;54.14;100097.06;4986534;28;20046;-72
2022/04/29 05:06:56;;;;;;;25.92;9.77;;;;;;;7.30;53.73;100083.53;4993372;28;20103;-74
2022/04/29 05:09:23;;;;;;;30.63;10.07;;;;;;;7.43;53.36;100104.19;4977434;28;20127;-73
2022/04/29 05:11:49;;;;;;;28.23;10.30;;;;;;;7.44;53.34;100101.19;5024555;28;20121;-73
2022/04/29 05:14:49;;;;;;;20.92;9.60;;;;;;;7.32;53.14;100101.28;4977386;28;20062;-71
2022/04/29 05:17:15;;;;;;;;;;;;;;;7.24;53.54;100101.66;4974580;28;20466;-73
2022/04/29 05:19:43;;;;;;;24.00;9.05;;;;;;;7.28;53.19;100100.13;5014735;28;19932;-75
2022/04/29 05:22:13;;;;;;;29.45;10.32;;;;;;;7.28;52.91;100081.09;4976511;28;20434;-73
2022/04/29 05:24:39;;;;;;;24.10;11.23;;;;;;;7.43;52.73;100099.53;4963969;28;20145;-73
2022/04/29 05:27:25;;;;;;;32.88;10.98;;;;;;;7.31;53.10;100098.78;5024652;28;20059;-74
2022/04/29 05:30:10;;;;;;;26.55;10.20;;;;;;;7.34;53.01;100103.75;4999157;28;20046;-74
2022/04/29 05:33:03;;;;;;;24.60;10.30;;;;;;;7.33;52.51;100102.09;4986894;28;20092;-74
2022/04/29 05:35:48;;;;;;;25.08;9.70;;;;;;;7.25;52.52;100092.44;4990595;28;20073;-69
2022/04/29 05:44:22;;;;;;;22.63;9.00;;;;;;;7.46;51.90;100090.88;4980272;28;20057;-72
2022/04/29 05:46:49;;;;;;;16.85;8.13;;;;;;;7.51;51.50;100092.88;5009113;28;20057;-70
2022/04/29 05:49:16;;;;;;;19.25;8.18;;;;;;;7.49;51.17;100095.03;4993614;28;20054;-70
2022/04/29 05:51:46;;;;;;;24.90;8.30;;;;;;;7.46;50.68;100098.25;4957236;28;20422;-75
2022/04/29 05:54:13;;;;;;;24.52;7.88;;;;;;;7.55;50.38;100095.94;4974832;28;20058;-76
2022/04/29 05:56:40;;;;;;;15.35;7.32;;;;;;;7.52;49.94;100100.81;4976106;28;20049;-75
2022/04/29 05:59:11;;;;;;;16.38;8.45;;;;;;;7.56;49.76;100103.81;4986676;28;20518;-75
2022/04/29 06:02:10;;;;;;;21.58;8.02;;;;;;;7.40;49.61;100104.66;4968359;28;20073;-76
2022/04/29 06:04:44;;;;;;;24.88;8.35;;;;;;;7.40;48.96;100093.75;4994362;28;20045;-75
2022/04/29 06:07:10;;;;;;;18.33;7.87;;;;;;;7.48;48.78;100102.34;4997900;28;20054;-72
2022/04/29 06:09:38;;;;;;;20.65;7.40;;;;;;;7.59;48.56;100103.34;5018748;28;20319;-73
2022/04/29 06:12:05;;;;;;;19.52;7.63;;;;;;;7.71;47.95;100097.81;5000093;28;20046;-74
2022/04/29 06:14:34;;;;;;;18.40;8.27;;;;;;;7.76;47.65;100102.53;4992464;28;20045;-73
2022/04/29 06:17:21;;;;;;;19.55;7.50;;;;;;;7.82;47.51;100106.16;4982153;28;20044;-74
2022/04/29 06:20:09;;;;;;;24.88;7.15;;;;;;;7.87;46.94;100098.06;5011021;28;20050;-73
2022/04/29 06:22:57;;;;;;;18.10;6.50;;;;;;;7.88;45.72;100097.81;4992368;28;20061;-71
2022/04/29 06:25:29;;;;;;;16.15;6.45;;;;;;;7.95;44.99;100095.72;5013317;28;20552;-70
2022/04/29 06:27:56;;;;;;;36.30;7.90;;;;;;;7.95;44.23;100098.44;4995682;28;20120;-72
2022/04/29 06:30:23;;;;;;;19.23;7.45;;;;;;;8.02;44.07;100092.84;4999650;28;20061;-71
2022/04/29 06:33:05;;;;;;;16.10;7.00;;;;;;;8.11;42.82;100093.22;5001050;28;20056;-70
2022/04/29 06:35:44;;;;;;;19.88;6.18;;;;;;;8.22;42.67;100095.03;4995553;28;20100;-69
2022/04/29 06:38:13;;;;;;;14.35;5.13;;;;;;;8.32;42.36;100101.66;5003015;28;20057;-69
2022/04/29 06:40:58;;;;;;;11.65;4.45;;;;;;;8.40;40.68;100089.50;5000488;28;20402;-70
2022/04/29 06:43:43;;;;;;;12.88;5.00;;;;;;;8.56;40.08;100091.38;4997894;28;20132;-70
2022/04/29 06:46:28;;;;;;;17.55;6.22;;;;;;;8.65;39.09;100092.56;5014957;28;20541;-70
2022/04/29 06:49:16;;;;;;;11.57;3.37;;;;;;;8.59;36.82;100093.59;4980305;28;20152;-71
2022/04/29 06:51:48;;;;;;;16.83;3.53;;;;;;;8.45;36.78;100086.84;5006627;28;20533;-68
2022/04/29 06:54:19;;;;;;;9.50;3.38;;;;;;;8.36;35.00;100097.38;4994219;28;20047;-69
2022/04/29 06:56:52;;;;;;;14.88;5.38;;;;;;;8.46;35.32;100091.22;4982908;28;20042;-68
2022/04/29 06:59:19;;;;;;;11.88;3.50;;;;;;;8.45;33.16;100092.31;5010701;28;20053;-70
2022/04/29 07:01:46;;;;;;;7.68;2.65;;;;;;;8.38;32.82;100082.41;4996839;28;20087;-69
2022/04/29 07:04:12;;;;;;;8.10;2.70;;;;;;;8.50;31.35;100086.94;4993681;28;20054;-69
2022/04/29 07:06:39;;;;;;;10.95;2.30;;;;;;;8.51;30.18;100080.41;5010771;28;20049;-70
2022/04/29 07:09:06;;;;;;;7.28;2.65;;;;;;;8.55;29.67;100078.00;4992671;28;20418;-73
2022/04/29 07:11:44;;;;;;;8.80;2.58;;;;;;;8.57;28.39;100065.75;4992226;28;20163;-71
2022/04/29 07:14:32;;;;;;;9.80;3.25;;;;;;;8.69;28.55;100089.34;4994496;28;20521;-71
2022/04/29 07:17:10;;;;;;;7.95;2.53;;;;;;;8.64;28.00;100090.94;4978446;28;20050;-70
2022/04/29 07:19:49;;;;;;;10.25;2.05;;;;;;;8.50;27.53;100081.50;4992227;28;20053;-70
2022/04/29 07:22:17;;;;;;;8.13;2.78;;;;;;;8.49;27.99;100069.72;4983203;28;20052;-71
2022/04/29 07:24:46;;;;;;;11.85;2.47;;;;;;;8.62;27.25;100089.53;5006879;28;20137;-73
2022/04/29 07:27:13;;;;;;;9.82;2.63;;;;;;;8.79;28.26;100081.28;4997381;28;20081;-73
2022/04/29 07:29:39;;;;;;;7.28;2.72;;;;;;;8.77;28.67;100078.00;4997721;28;20041;-70
2022/04/29 07:32:24;;;;;;;9.40;2.72;;;;;;;8.80;28.21;100082.94;4964165;28;20061;-73
2022/04/29 07:44:06;;;;;;;12.45;3.30;;;;;;;9.17;28.04;100084.13;4977994;28;20053;-74
2022/04/29 07:46:38;;;;;;;13.60;2.42;;;;;;;9.26;27.97;100079.81;5009964;28;20399;-72
2022/04/29 07:49:14;;;;;;;9.68;2.28;;;;;;;9.31;27.28;100073.59;5009956;28;20489;-72
2022/04/29 07:54:31;;;;;;;8.20;2.10;;;;;;;9.19;26.70;100077.31;4991564;28;20423;-69
2022/04/29 07:56:57;;;;;;;8.00;2.65;;;;;;;9.32;27.31;100069.78;4998111;28;20058;-69
2022/04/29 07:59:23;;;;;;;10.80;2.30;;;;;;;9.55;27.41;100060.41;4993699;28;20514;-71
2022/04/29 08:01:58;;;;;;;11.52;3.10;;;;;;;9.61;27.32;100055.81;4991949;28;20128;-70
2022/04/29 08:04:24;;;;;;;8.02;2.47;;;;;;;9.71;27.11;100053.16;5007049;28;20661;-71
2022/04/29 08:06:50;;;;;;;11.45;3.00;;;;;;;9.82;27.42;100059.50;4990237;28;20077;-70
2022/04/29 08:09:17;;;;;;;14.60;3.08;;;;;;;9.90;27.50;100055.47;4977240;28;20069;-70
2022/04/29 08:11:44;;;;;;;10.10;2.67;;;;;;;10.10;27.50;100056.66;4995150;28;20046;-71
2022/04/29 08:14:34;;;;;;;9.13;2.35;;;;;;;10.25;27.22;100045.00;4971654;28;20517;-70
2022/04/29 08:17:19;;;;;;;9.23;2.40;;;;;;;10.39;26.65;100048.88;5010495;28;20275;-70
2022/04/29 08:19:49;;;;;;;10.73;2.55;;;;;;;10.58;27.38;100045.69;5004620;28;20057;-70
2022/04/29 08:22:21;;;;;;;16.00;3.42;;;;;;;10.80;27.93;100036.44;4993225;28;20048;-71
2022/04/29 08:24:49;;;;;;;9.60;2.95;;;;;;;11.05;28.77;100039.22;4977134;28;20080;-70
2022/04/29 08:27:17;;;;;;;8.52;2.65;;;;;;;11.16;28.68;100047.41;5007150;28;20046;-70
2022/04/29 08:29:44;;;;;;;7.70;2.83;;;;;;;11.09;28.13;100044.97;4989916;28;20085;-72
2022/04/29 08:32:10;;;;;;;11.63;4.03;;;;;;;10.81;27.51;100052.59;5010247;28;20045;-71
2022/04/29 08:34:42;;;;;;;11.32;3.15;;;;;;;10.58;27.68;100051.97;4971422;28;20518;-71
2022/04/29 08:37:08;;;;;;;12.30;3.08;;;;;;;10.54;27.79;100041.84;4992580;28;20048;-72
2022/04/29 08:39:40;;;;;;;8.95;3.50;;;;;;;10.56;27.58;100040.47;4976228;28;20096;-72
2022/04/29 08:42:06;;;;;;;11.70;2.47;;;;;;;10.52;27.59;100035.81;4972273;28;20453;-70
2022/04/29 08:44:35;;;;;;;8.57;2.17;;;;;;;10.53;27.38;100034.72;4977038;28;20057;-72
2022/04/29 08:47:30;;;;;;;11.15;3.10;;;;;;;10.58;27.70;100030.09;5006288;28;20058;-70
2022/04/29 08:50:02;;;;;;;7.53;2.72;;;;;;;10.65;28.13;100024.38;4989378;28;20384;-69
2022/04/29 08:52:29;;;;;;;11.70;3.03;;;;;;;10.76;28.32;100023.31;5008572;28;20123;-73
2022/04/29 09:00:30;;;;;;;14.20;2.40;;;;;;;11.34;28.37;100027.72;5008338;28;20146;-71
2022/04/29 09:02:56;;;;;;;9.65;3.20;;;;;;;11.25;27.20;100023.88;4990774;28;20132;-70
2022/04/29 09:05:22;;;;;;;8.98;2.70;;;;;;;11.24;26.97;100018.69;4976864;28;20418;-70
2022/04/29 09:07:59;;;;;;;10.90;3.03;;;;;;;11.40;26.77;100014.88;4990277;28;20069;-70
2022/04/29 09:10:30;;;;;;;11.27;2.55;;;;;;;11.50;27.23;100000.34;4984916;28;20124;-72
2022/04/29 09:13:10;;;;;;;18.48;3.60;;;;;;;11.70;28.05;99999.47;4990067;28;20080;-73
2022/04/29 09:15:38;;;;;;;10.60;3.33;;;;;;;11.87;27.76;99999.16;5000976;28;20490;-73
2022/04/29 09:18:04;;;;;;;9.07;2.60;;;;;;;11.82;27.16;99993.69;5001640;28;20140;-73
2022/04/29 09:20:30;;;;;;;11.18;2.85;;;;;;;11.68;26.62;99998.91;5009310;28;20054;-73
2022/04/29 09:22:56;;;;;;;8.77;2.78;;;;;;;11.58;26.26;99999.75;5009017;28;20049;-72
2022/04/29 09:25:56;;;;;;;7.50;2.60;;;;;;;11.37;26.45;99992.69;5009374;28;20511;-72
2022/04/29 09:28:47;;;;;;;9.80;2.25;;;;;;;11.37;26.51;99992.69;4990038;28;20053;-73
2022/04/29 09:31:20;;;;;;;8.80;2.45;;;;;;;11.31;26.21;99994.59;4973958;28;20115;-73
2022/04/29 09:33:54;;;;;;;11.10;2.70;;;;;;;11.61;26.67;99987.44;4989511;28;20037;-71
2022/04/29 09:36:29;;;;;;;9.82;2.65;;;;;;;11.77;26.92;99980.81;5018804;28;20067;-69
2022/04/29 09:41:57;;;;;;;8.55;2.95;;;;;;;11.86;26.05;99972.84;4994418;28;20511;-74
2022/04/29 09:44:28;;;;;;;18.33;2.60;;;;;;;11.73;26.25;99968.78;5016121;28;20062;-76
2022/04/29 09:47:08;;;;;;;7.72;2.45;;;;;;;11.51;26.32;99951.84;5019333;28;20053;-76
2022/04/29 09:49:34;;;;;;;6.07;2.22;;;;;;;11.96;26.28;99977.47;4988843;28;20058;-74
2022/04/29 09:52:00;;;;;;;9.27;2.75;;;;;;;12.20;25.99;99960.44;5010070;28;20082;-77
2022/04/29 09:54:29;;;;;;;8.48;2.80;;;;;;;12.39;25.83;99966.06;5017537;28;20045;-76
2022/04/29 09:57:24;;;;;;;8.65;2.45;;;;;;;12.70;25.26;99954.09;5004989;28;20049;-74
2022/04/29 09:59:53;;;;;;;10.63;3.80;;;;;;;12.54;24.87;99961.59;5002367;28;20050;-74
2022/04/29 10:02:22;;;;;;;10.02;2.20;;;;;;;11.98;24.39;99974.47;5010612;28;20042;-75
2022/04/29 10:04:52;;;;;;;10.23;2.70;;;;;;;11.66;24.89;99970.19;5005383;28;20049;-76
2022/04/29 10:07:20;;;;;;;15.68;4.68;;;;;;;11.74;24.87;99969.59;5014592;28;20500;-75
2022/04/29 10:09:54;;;;;;;6.80;2.20;;;;;;;11.46;25.30;99956.25;5009206;28;20055;-75
2022/04/29 10:12:22;;;;;;;7.95;2.17;;;;;;;11.39;25.28;99950.22;4989818;28;20185;-75
2022/04/29 10:15:16;;;;;;;7.85;2.53;;;;;;;11.42;25.36;99963.38;4995281;28;20156;-76
2022/04/29 10:23:48;;;;;;;10.65;2.75;;;;;;;11.34;25.43;99948.34;4983520;28;20045;-74
2022/04/29 10:26:16;;;;;;;17.25;2.47;;;;;;;11.29;25.71;99948.34;4994378;28;20046;-73
2022/04/29 10:33:16;;;;;;;9.50;2.55;;;;;;;11.18;27.22;99878.31;5010733;28;20068;-77
2022/04/29 10:40:11;;;;;;;15.45;3.00;;;;;;;11.28;26.74;99883.75;5047498;28;20075;-75
2022/04/29 10:43:28;;;;;;;10.32;2.63;;;;;;;11.21;26.03;99870.34;5035103;28;20456;-75
2022/04/29 10:46:22;;;;;;;10.68;2.60;;;;;;;11.25;26.06;99878.03;4950511;28;20054;-77
2022/04/29 10:49:26;;;;;;;9.00;2.90;;;;;;;11.55;26.27;99918.19;5026924;28;20060;-76
2022/04/29 10:53:12;;;;;;;;;;;;;;;;;;;;;
2022/04/29 10:57:02;;;;;;;;;;;;;;;12.12;25.96;99934.44;4919609;28;20052;-76
2022/04/29 11:00:14;;;;;;;9.85;2.75;;;;;;;12.57;26.23;99917.16;5052094;22;19968;-75
2022/04/29 11:02:48;;;;;;;12.57;3.00;;;;;;;12.40;27.04;99851.72;4935477;29;20101;-76
2022/04/29 11:06:12;;;;;;;9.82;2.78;;;;;;;12.62;25.55;99860.31;4950040;28;20057;-77
2022/04/29 11:09:57;;;;;;;14.55;3.25;;;;;;;11.98;23.86;99875.81;5011369;28;20195;-76
2022/04/29 11:13:14;;;;;;;10.02;2.67;;;;;;;11.86;24.79;99931.75;4990905;28;20080;-74
2022/04/29 11:16:14;;;;;;;11.25;2.92;;;;;;;11.77;24.42;99933.44;5009012;28;20077;-75
2022/04/29 11:19:23;;;;;;;9.18;2.88;;;;;;;11.40;24.54;99938.22;5011380;28;20054;-77
2022/04/29 11:25:58;;;;;;;11.27;3.30;;;;;;;11.11;25.06;99837.56;4970293;28;20217;-76
2022/04/29 11:28:39;;;;;;;13.00;4.65;;;;;;;11.52;25.00;99868.63;4991315;28;20109;-74
2022/04/29 11:31:35;;;;;;;9.63;3.17;;;;;;;11.88;25.34;99868.47;4986411;28;20136;-76
2022/04/29 11:34:29;;;;;;;13.05;4.05;;;;;;;11.94;24.75;99867.34;5005708;28;20137;-77
2022/04/29 11:37:26;;;;;;;10.35;4.00;;;;;;;12.20;24.50;99886.41;4952636;28;20096;-76
2022/04/29 11:40:02;;;;;;;13.63;4.07;;;;;;;12.19;24.87;99871.88;5011696;28;20069;-74
2022/04/29 11:42:30;;;;;;;11.02;3.08;;;;;;;12.23;24.80;99885.00;4989993;28;20546;-75
2022/04/29 11:45:03;;;;;;;9.13;3.00;;;;;;;12.29;24.75;99886.63;4994106;28;20056;-76
2022/04/29 11:47:32;;;;;;;13.10;4.40;;;;;;;12.39;25.04;99883.00;4977799;28;20050;-76
2022/04/29 11:50:01;;;;;;;7.70;2.83;;;;;;;12.34;24.42;99887.41;4951659;28;20053;-76
2022/04/29 11:52:30;;;;;;;8.30;3.00;;;;;;;12.32;24.25;99878.63;5009039;28;20050;-76
2022/04/29 11:58:38;;;;;;;9.88;3.55;;;;;;;11.44;24.32;99832.50;4952554;28;20125;-76
2022/04/29 12:01:25;;;;;;;10.30;2.95;;;;;;;11.68;24.92;99848.28;5007827;28;20404;-75
2022/04/29 12:03:55;;;;;;;9.63;3.08;;;;;;;11.91;24.81;99882.41;5011168;28;20037;-75
2022/04/29 12:07:20;;;;;;;;;;;;;;;;;;;;;
2022/04/29 12:09:59;;;;;;;9.25;2.78;;;;;;;11.53;25.06;99842.88;4976810;28;20148;-74
2022/04/29 12:12:27;;;;;;;9.02;2.67;;;;;;;11.75;25.08;99856.19;4993268;28;20068;-75
2022/04/29 12:14:55;;;;;;;;;;;;;;;11.78;25.02;99858.38;5009989;28;20565;-74
2022/04/29 12:17:32;;;;;;;198.05;81.20;;;;;;;11.52;25.08;99843.97;4990030;28;20403;-75
2022/04/29 12:20:01;;;;;;;321.98;136.13;;;;;;;11.39;25.18;99870.03;4953740;28;20146;-74
2022/04/29 12:22:28;;;;;;;95.95;43.25;;;;;;;11.51;25.07;99839.59;4997982;28;20042;-74
2022/04/29 12:24:54;;;;;;;34.20;15.05;;;;;;;11.45;25.71;99849.75;4995731;28;20140;-73
2022/04/29 12:27:29;;;;;;;17.80;6.10;;;;;;;11.61;25.54;99845.84;5007053;28;20046;-74
2022/04/29 12:35:28;;;;;;;35.30;12.77;;;;;;;11.17;25.27;99828.22;5006862;28;20061;-74
2022/04/29 12:37:55;;;;;;;12.67;4.13;;;;;;;11.19;25.08;99822.47;4966100;28;20285;-72
2022/04/29 12:40:27;;;;;;;20.20;6.00;;;;;;;11.54;25.12;99836.28;5010741;28;20053;-73
2022/04/29 12:43:07;;;;;;;18.05;6.53;;;;;;;11.38;25.07;99839.09;5002287;28;20052;-72
2022/04/29 12:45:34;;;;;;;8.40;2.70;;;;;;;11.47;24.55;99811.94;4990827;28;20077;-73
2022/04/29 12:48:07;;;;;;;20.40;6.60;;;;;;;11.39;25.19;99826.25;4997165;28;20053;-73
2022/04/29 12:50:45;;;;;;;22.45;8.70;;;;;;;11.49;25.08;99794.16;4990405;28;20060;-69
2022/04/29 12:53:17;;;;;;;36.60;13.45;;;;;;;11.66;25.31;99817.63;4991983;28;20062;-73
2022/04/29 12:55:51;;;;;;;15.63;5.18;;;;;;;11.71;25.20;99803.91;4991419;28;20050;-73